Time;durP1;ratioP1;P1;durP2;ratioP2;P2;SDS_P1;SDS_P2;PMS_P1;PMS_P2;Temp;Humidity;BMP_temperature;BMP_pressure;BME280_temperature;BME280_humidity;BME280_pressure;Samples;Min_cycle;Max_cycle;Signal;HPM_P1;HPM_P2
2022/04/09 00:02:11;;;;;;;1.25;0.70;;;;;;;1.80;86.83;98316.53;5070140;27;20050;-86
2022/04/09 00:04:55;;;;;;;1.30;0.65;;;;;;;1.79;86.94;98310.31;5099459;27;20056;-90
2022/04/09 00:07:39;;;;;;;0.90;0.50;;;;;;;1.80;86.81;98316.53;5093460;28;20108;-87
2022/04/09 00:10:07;;;;;;;0.82;0.40;;;;;;;1.82;86.71;98317.06;5104858;28;20040;-83
2022/04/09 00:12:33;;;;;;;3.22;0.65;;;;;;;1.84;86.47;98328.38;5108167;27;20588;-80
2022/04/09 00:14:59;;;;;;;0.93;0.55;;;;;;;1.84;86.16;98322.19;5127971;27;20097;-80
2022/04/09 00:17:45;;;;;;;0.93;0.60;;;;;;;1.83;86.05;98321.38;5112770;27;20046;-80
2022/04/09 00:20:29;;;;;;;0.93;0.73;;;;;;;1.82;86.09;98311.66;5123468;27;20138;-84
2022/04/09 00:23:14;;;;;;;1.95;0.75;;;;;;;1.84;85.96;98320.28;5069707;28;20051;-89
2022/04/09 00:25:58;;;;;;;1.05;0.90;;;;;;;1.81;86.15;98318.94;5088896;28;20047;-74
2022/04/09 00:28:42;;;;;;;2.92;1.15;;;;;;;1.83;86.09;98318.66;5117722;27;20058;-76
2022/04/09 00:31:27;;;;;;;1.55;1.20;;;;;;;1.85;85.89;98316.47;5111528;27;20685;-74
2022/04/09 00:33:52;;;;;;;2.25;0.90;;;;;;;1.86;86.39;98317.28;5110791;27;20128;-75
2022/04/09 00:36:18;;;;;;;0.93;0.82;;;;;;;1.85;86.45;98308.38;5090992;28;20032;-76
2022/04/09 00:38:44;;;;;;;1.20;1.08;;;;;;;1.85;85.80;98311.06;5094507;27;20584;-76
2022/04/09 00:41:29;;;;;;;0.98;0.85;;;;;;;1.86;85.67;98307.28;5106747;27;20176;-76
2022/04/09 00:44:20;;;;;;;1.08;0.80;;;;;;;1.85;85.75;98311.06;5117418;27;20063;-76
2022/04/09 00:47:05;;;;;;;1.90;0.75;;;;;;;1.86;85.78;98312.69;5099168;27;20096;-76
2022/04/09 00:49:49;;;;;;;1.00;0.90;;;;;;;1.87;85.63;98319.72;5120804;27;20058;-75
2022/04/09 00:52:16;;;;;;;1.10;0.80;;;;;;;1.86;85.69;98322.69;5117724;28;20036;-75
2022/04/09 00:54:42;;;;;;;0.82;0.60;;;;;;;1.85;85.90;98319.19;5128342;27;20035;-76
2022/04/09 00:57:09;;;;;;;1.45;0.80;;;;;;;1.85;85.72;98316.47;5087911;27;20035;-76
2022/04/09 00:59:54;;;;;;;1.60;0.60;;;;;;;1.86;86.09;98328.91;5122682;27;20050;-77
2022/04/09 01:02:40;;;;;;;2.70;0.90;;;;;;;1.85;86.39;98324.59;5117118;27;20073;-74
2022/04/09 01:05:24;;;;;;;1.20;0.82;;;;;;;1.84;86.14;98328.38;5088115;28;20577;-75
2022/04/09 01:07:50;;;;;;;1.20;0.70;;;;;;;1.83;86.58;98332.19;5109945;27;20420;-76
2022/04/09 01:10:16;;;;;;;1.08;0.70;;;;;;;1.83;86.28;98339.50;5113795;27;20043;-76
2022/04/09 01:13:01;;;;;;;1.00;0.80;;;;;;;1.85;86.37;98335.41;5104759;27;20042;-76
2022/04/09 01:15:27;;;;;;;2.60;0.77;;;;;;;1.85;86.24;98340.00;5099451;27;20035;-76
2022/04/09 01:17:53;;;;;;;1.73;0.88;;;;;;;1.83;86.20;98343.00;5108465;28;20405;-77
2022/04/09 01:20:38;;;;;;;1.02;0.60;;;;;;;1.82;86.82;98333.28;5084142;27;20075;-76
2022/04/09 01:23:22;;;;;;;1.17;0.82;;;;;;;1.82;86.47;98341.38;5109493;28;20628;-75
2022/04/09 01:26:07;;;;;;;2.10;0.70;;;;;;;1.84;86.61;98336.50;5123599;27;20042;-76
2022/04/09 01:28:54;;;;;;;1.67;1.17;;;;;;;1.90;86.33;98342.69;5087283;27;20104;-76
2022/04/09 01:31:38;;;;;;;0.98;0.82;;;;;;;1.87;86.41;98338.63;5098558;28;20057;-76
2022/04/09 01:34:13;;;;;;;1.02;0.65;;;;;;;1.89;86.14;98346.47;5102317;28;20047;-76
2022/04/09 01:36:39;;;;;;;2.15;0.80;;;;;;;1.87;86.23;98344.03;5089283;27;20043;-76
2022/04/09 01:39:05;;;;;;;1.33;0.70;;;;;;;1.87;86.44;98348.66;5083873;27;20035;-75
2022/04/09 01:41:49;;;;;;;1.13;0.52;;;;;;;1.83;86.36;98340.28;5096903;28;20131;-76
2022/04/09 01:44:33;;;;;;;0.68;0.68;;;;;;;1.79;86.31;98350.06;5114818;27;20046;-76
2022/04/09 01:47:18;;;;;;;2.75;0.85;;;;;;;1.77;86.30;98349.53;5092905;27;20466;-76
2022/04/09 01:50:03;;;;;;;2.72;0.90;;;;;;;1.76;85.76;98353.34;5105796;27;20159;-76
2022/04/09 01:52:29;;;;;;;1.92;0.77;;;;;;;1.74;85.90;98350.09;5092504;27;20035;-76
2022/04/09 01:54:55;;;;;;;1.90;0.60;;;;;;;1.72;85.65;98357.66;5098007;27;20045;-74
2022/04/09 01:57:40;;;;;;;0.80;0.60;;;;;;;1.70;85.01;98354.44;5101755;27;20047;-75
2022/04/09 02:00:10;;;;;;;1.10;0.73;;;;;;;1.67;85.43;98355.81;5095712;27;20512;-76
2022/04/09 02:02:39;;;;;;;2.78;0.70;;;;;;;1.64;86.01;98352.84;5110429;27;20089;-76
2022/04/09 02:05:06;;;;;;;1.60;0.80;;;;;;;1.62;85.54;98360.44;5098403;27;20612;-76
2022/04/09 02:07:31;;;;;;;1.88;0.77;;;;;;;1.63;85.22;98351.25;5083515;27;20039;-76
2022/04/09 02:09:58;;;;;;;1.38;0.80;;;;;;;1.61;84.92;98350.72;5092653;27;20565;-76
2022/04/09 02:12:31;;;;;;;1.95;0.77;;;;;;;1.60;84.82;98351.81;5110655;27;20030;-77
2022/04/09 02:14:56;;;;;;;1.10;0.50;;;;;;;1.58;84.90;98345.88;5106649;27;20516;-76
2022/04/09 02:17:22;;;;;;;1.80;1.10;;;;;;;1.56;84.64;98342.59;5108054;27;20065;-77
2022/04/09 02:20:08;;;;;;;1.67;0.70;;;;;;;1.54;84.71;98352.91;5090335;28;20116;-76
2022/04/09 02:22:52;;;;;;;1.45;0.70;;;;;;;1.51;84.72;98351.56;5124383;27;20062;-76
2022/04/09 02:25:37;;;;;;;1.73;0.77;;;;;;;1.47;84.43;98351.31;5110189;27;20606;-76
2022/04/09 02:28:23;;;;;;;2.63;0.70;;;;;;;1.42;84.37;98367.56;5100338;28;20181;-76
2022/04/09 02:31:11;;;;;;;2.47;0.77;;;;;;;1.41;83.90;98357.84;5074685;27;20471;-76
2022/04/09 02:33:58;;;;;;;1.55;0.90;;;;;;;1.40;84.34;98361.63;5099398;28;20042;-76
2022/04/09 02:36:25;;;;;;;1.55;0.80;;;;;;;1.37;84.47;98358.66;5123423;27;20035;-76
2022/04/09 02:38:51;;;;;;;2.30;0.90;;;;;;;1.35;84.34;98361.63;5097610;27;20067;-76
2022/04/09 02:41:16;;;;;;;1.40;0.85;;;;;;;1.35;84.39;98360.81;5112326;27;20121;-76
2022/04/09 02:44:00;;;;;;;2.63;0.80;;;;;;;1.35;84.61;98367.03;5085984;28;20071;-77
2022/04/09 02:46:48;;;;;;;2.05;0.60;;;;;;;1.38;83.98;98362.97;5107125;27;20225;-76
2022/04/09 02:49:34;;;;;;;3.10;0.80;;;;;;;1.40;83.86;98363.53;5105813;27;20449;-76
2022/04/09 02:52:19;;;;;;;3.10;0.50;;;;;;;1.38;83.83;98362.97;5107416;27;20078;-76
2022/04/09 02:55:05;;;;;;;2.97;0.65;;;;;;;1.37;83.58;98372.16;5090611;27;20088;-76
2022/04/09 02:57:50;;;;;;;3.05;0.80;;;;;;;1.33;84.02;98371.91;5099939;28;20413;-76
2022/04/09 03:00:36;;;;;;;1.75;0.60;;;;;;;1.30;84.20;98377.88;5096918;27;20070;-76
2022/04/09 03:03:04;;;;;;;4.18;0.70;;;;;;;1.28;84.19;98369.22;5098582;27;20581;-76
2022/04/09 03:05:50;;;;;;;1.25;0.70;;;;;;;1.28;83.98;98368.44;5107352;27;20794;-76
2022/04/09 03:08:34;;;;;;;2.65;0.77;;;;;;;1.29;84.36;98362.75;5125402;27;20535;-76
2022/04/09 03:11:18;;;;;;;3.72;0.90;;;;;;;1.29;84.03;98365.44;5097950;27;20524;-76
2022/04/09 03:14:02;;;;;;;3.35;0.93;;;;;;;1.29;84.44;98370.84;5093297;28;20104;-76
2022/04/09 03:16:47;;;;;;;2.47;1.10;;;;;;;1.29;84.26;98376.25;5102987;27;20245;-76
2022/04/09 03:19:31;;;;;;;2.47;0.70;;;;;;;1.28;84.16;98379.22;5082003;28;20420;-76
2022/04/09 03:21:58;;;;;;;1.55;0.60;;;;;;;1.27;83.77;98383.81;5075243;28;20036;-76
2022/04/09 03:24:24;;;;;;;1.92;0.73;;;;;;;1.28;84.13;98390.84;5088700;28;20035;-76
2022/04/09 03:27:09;;;;;;;1.15;0.70;;;;;;;1.29;84.02;98383.56;5096663;27;20046;-76
2022/04/09 03:29:55;;;;;;;2.03;0.77;;;;;;;1.28;83.81;98388.16;5102127;28;20050;-77
2022/04/09 03:32:40;;;;;;;3.08;1.20;;;;;;;1.30;83.81;98391.38;5106180;27;20067;-76
2022/04/09 03:35:29;;;;;;;3.55;1.00;;;;;;;1.28;83.46;98388.16;5081702;27;20540;-76
2022/04/09 03:38:14;;;;;;;2.47;0.73;;;;;;;1.29;83.66;98392.47;5067404;28;20109;-76
2022/04/09 03:40:50;;;;;;;3.15;0.93;;;;;;;1.33;83.72;98384.59;5087325;27;20040;-76
2022/04/09 03:43:19;;;;;;;2.20;0.50;;;;;;;1.47;83.69;98383.75;5101942;27;20074;-76
2022/04/09 03:45:45;;;;;;;1.92;1.02;;;;;;;1.58;83.40;98389.94;5117243;27;20058;-76
2022/04/09 03:48:17;;;;;;;1.17;0.63;;;;;;;1.68;82.35;98389.03;5076747;28;20122;-76
2022/04/09 03:50:44;;;;;;;3.25;1.20;;;;;;;1.84;82.43;98392.47;5088078;27;20437;-76
2022/04/09 03:53:19;;;;;;;3.50;0.90;;;;;;;2.07;82.21;98408.03;5074141;27;20042;-76
2022/04/09 03:56:04;;;;;;;3.28;1.15;;;;;;;2.08;82.08;98420.44;5088727;28;20519;-76
2022/04/09 03:58:53;;;;;;;3.10;1.08;;;;;;;2.10;81.68;98424.53;5095384;27;20107;-77
2022/04/09 04:01:41;;;;;;;2.08;0.88;;;;;;;2.37;81.09;98415.13;5092133;27;20070;-76
2022/04/09 04:04:29;;;;;;;;;;;;;;;2.97;79.85;98415.72;5087666;28;20050;-76
2022/04/09 04:07:22;;;;;;;1.85;0.75;;;;;;;3.45;77.61;98411.09;5067689;27;19927;-76
2022/04/09 04:10:10;;;;;;;2.22;0.77;;;;;;;3.90;75.65;98417.88;5068256;28;20050;-77
2022/04/09 04:12:40;;;;;;;1.60;0.70;;;;;;;4.36;74.65;98422.66;5112919;27;20039;-76
2022/04/09 04:15:07;;;;;;;2.83;1.23;;;;;;;4.73;72.93;98418.28;5076532;27;20066;-76
2022/04/09 04:17:40;;;;;;;1.90;0.80;;;;;;;4.92;71.16;98421.75;5093435;28;20119;-76
2022/04/09 04:20:25;;;;;;;1.38;0.65;;;;;;;5.31;69.95;98423.22;5086916;28;20050;-76
2022/04/09 04:23:12;;;;;;;2.53;0.88;;;;;;;5.53;68.99;98419.78;5095614;27;20134;-76
2022/04/09 04:25:58;;;;;;;1.17;0.65;;;;;;;5.75;66.99;98420.72;5103346;27;20097;-75
2022/04/09 04:28:48;;;;;;;2.55;0.75;;;;;;;5.26;67.72;98428.75;5101159;28;20085;-77
2022/04/09 04:31:38;;;;;;;1.50;0.60;;;;;;;4.67;67.97;98425.69;5071743;28;20059;-75
2022/04/09 04:34:12;;;;;;;1.77;0.90;;;;;;;4.27;68.71;98438.00;5087841;28;20047;-75
2022/04/09 04:36:41;;;;;;;2.67;0.98;;;;;;;4.03;69.73;98435.34;5068373;27;20046;-73
2022/04/09 04:39:12;;;;;;;3.28;1.00;;;;;;;4.06;70.25;98436.66;5113105;27;20042;-74
2022/04/09 04:41:59;;;;;;;5.13;1.38;;;;;;;4.65;69.83;98443.38;5081572;28;20486;-73
2022/04/09 04:44:45;;;;;;;2.20;0.85;;;;;;;5.25;67.61;98424.44;5081176;28;20046;-74
2022/04/09 04:47:30;;;;;;;3.25;1.00;;;;;;;5.90;67.05;98443.28;5093189;27;20055;-75
2022/04/09 04:50:16;;;;;;;3.28;0.80;;;;;;;6.16;65.14;98449.81;5105662;27;20474;-76
2022/04/09 04:52:43;;;;;;;3.35;1.13;;;;;;;6.30;63.64;98445.16;5073369;28;20036;-75
2022/04/09 04:55:11;;;;;;;2.08;1.05;;;;;;;6.62;64.09;98440.63;5063763;28;20126;-75
2022/04/09 04:57:56;;;;;;;1.77;0.80;;;;;;;6.94;62.27;98451.28;5102191;28;20091;-76
2022/04/09 05:00:51;;;;;;;2.83;1.10;;;;;;;7.64;61.04;98438.81;5126041;28;20042;-76
2022/04/09 05:03:39;;;;;;;3.28;1.15;;;;;;;8.32;60.30;98448.25;5093598;28;20046;-76
2022/04/09 05:06:51;;;;;;;2.80;1.20;;;;;;;8.56;56.85;98456.03;5115279;28;20047;-77
2022/04/09 05:09:19;;;;;;;5.50;1.02;;;;;;;8.65;56.40;98451.38;5101819;28;20156;-76
2022/04/09 05:11:52;;;;;;;4.97;1.15;;;;;;;8.79;56.43;98459.41;5073425;28;20047;-76
2022/04/09 05:14:41;;;;;;;3.22;0.90;;;;;;;8.47;57.22;98463.41;5094982;28;20192;-76
2022/04/09 05:17:30;;;;;;;1.67;0.80;;;;;;;7.66;57.87;98455.66;5102941;28;20128;-76
2022/04/09 05:20:16;;;;;;;2.08;0.93;;;;;;;6.89;59.10;98469.66;5087066;28;20050;-76
2022/04/09 05:23:03;;;;;;;3.72;1.20;;;;;;;6.49;60.60;98469.50;5082319;28;20050;-77
2022/04/09 05:25:49;;;;;;;1.77;1.20;;;;;;;6.31;59.87;98479.44;5090210;28;20493;-76
2022/04/09 05:28:34;;;;;;;2.78;1.27;;;;;;;6.54;60.78;98476.75;5111376;28;20054;-76
2022/04/09 05:31:00;;;;;;;3.60;1.02;;;;;;;7.06;59.65;98483.41;5084372;28;20031;-76
2022/04/09 05:33:27;;;;;;;2.33;0.98;;;;;;;6.80;59.52;98479.72;5082857;28;20050;-76
2022/04/09 05:35:57;;;;;;;4.63;0.85;;;;;;;7.03;59.35;98489.50;5095402;28;20487;-76
2022/04/09 05:38:42;;;;;;;3.28;0.88;;;;;;;7.38;58.39;98501.44;5109664;28;20088;-76
2022/04/09 05:41:27;;;;;;;4.07;1.02;;;;;;;7.91;57.85;98495.09;5092446;27;20045;-76
2022/04/09 05:44:12;;;;;;;2.80;0.88;;;;;;;8.31;57.20;98497.75;5104050;28;20124;-76
2022/04/09 05:46:59;;;;;;;3.88;1.20;;;;;;;8.94;56.60;98507.34;5115634;27;20046;-76
2022/04/09 05:49:44;;;;;;;4.20;1.27;;;;;;;8.84;54.15;98513.94;5098559;27;20050;-76
2022/04/09 05:52:10;;;;;;;3.30;1.02;;;;;;;9.01;53.70;98526.81;5101687;28;20061;-76
2022/04/09 05:54:36;;;;;;;2.83;0.90;;;;;;;9.00;53.24;98531.47;5080812;27;20502;-76
2022/04/09 05:57:05;;;;;;;3.97;1.23;;;;;;;9.30;52.87;98526.94;5101944;27;20063;-76
2022/04/09 05:59:53;;;;;;;6.65;1.25;;;;;;;10.01;52.46;98525.63;5107666;28;20132;-77
2022/04/09 06:02:39;;;;;;;3.42;1.08;;;;;;;10.58;51.01;98540.50;5082878;27;20042;-76
2022/04/09 06:05:26;;;;;;;4.67;1.13;;;;;;;10.92;49.87;98535.91;5107553;27;20173;-77
2022/04/09 06:08:10;;;;;;;1.98;0.90;;;;;;;11.53;47.29;98538.13;5112306;27;20066;-76
2022/04/09 06:10:56;;;;;;;1.83;0.73;;;;;;;11.85;46.93;98542.03;5102063;27;20507;-76
2022/04/09 06:13:22;;;;;;;2.03;0.93;;;;;;;12.29;47.00;98538.38;5109518;27;20031;-77
2022/04/09 06:15:47;;;;;;;2.20;0.85;;;;;;;12.24;44.44;98513.06;5100794;28;20078;-76
2022/04/09 06:18:38;;;;;;;2.65;0.70;;;;;;;10.85;44.86;98546.63;5084158;27;20495;-76
2022/04/09 06:21:23;;;;;;;2.05;0.85;;;;;;;10.18;47.50;98536.50;5078452;28;20529;-77
2022/04/09 06:24:07;;;;;;;1.90;0.90;;;;;;;9.76;49.02;98546.50;5068595;28;20047;-75
2022/04/09 06:26:52;;;;;;;4.25;1.30;;;;;;;9.86;47.71;98554.34;5100088;27;20051;-76
2022/04/09 06:29:37;;;;;;;1.05;0.70;;;;;;;9.26;48.84;98563.50;5095478;27;20072;-76
2022/04/09 06:32:21;;;;;;;3.70;0.77;;;;;;;8.67;50.91;98568.59;5088136;28;20425;-77
2022/04/09 06:34:47;;;;;;;2.83;0.77;;;;;;;8.51;51.18;98568.28;5080032;28;20040;-76
2022/04/09 06:37:21;;;;;;;4.40;1.00;;;;;;;7.72;53.16;98566.31;5074966;28;20072;-76
2022/04/09 06:39:48;;;;;;;4.70;1.00;;;;;;;7.29;54.19;98578.88;5094740;28;20127;-77
2022/04/09 06:42:32;;;;;;;2.92;1.35;;;;;;;7.38;54.28;98575.09;5097552;28;20097;-77
2022/04/09 06:45:39;;;;;;;3.90;1.08;;;;;;;7.56;54.19;98576.81;5104353;27;20121;-77
2022/04/09 06:48:39;;;;;;;1.20;0.90;;;;;;;8.43;53.38;98580.78;5112481;27;20092;-76
2022/04/09 06:51:44;;;;;;;6.25;1.10;;;;;;;8.77;50.60;98580.06;5121526;27;20046;-77
2022/04/09 06:54:49;;;;;;;2.58;0.80;;;;;;;8.53;51.20;98590.63;5113525;27;20896;-77
2022/04/09 06:57:35;;;;;;;4.97;0.98;;;;;;;7.85;51.75;98594.66;5109345;28;20425;-76
2022/04/09 07:00:03;;;;;;;3.83;1.10;;;;;;;7.63;53.03;98616.50;5107550;27;20070;-77
2022/04/09 07:02:33;;;;;;;4.80;0.95;;;;;;;7.32;53.68;98611.81;5083744;28;20313;-75
2022/04/09 07:05:18;;;;;;;2.00;0.70;;;;;;;7.10;54.01;98617.22;5127047;27;20111;-75
2022/04/09 07:07:46;;;;;;;2.70;0.85;;;;;;;6.54;54.30;98634.78;5086987;28;20031;-77
2022/04/09 07:10:12;;;;;;;3.40;0.80;;;;;;;6.22;56.14;98635.69;5084574;28;20043;-76
2022/04/09 07:12:38;;;;;;;3.17;1.02;;;;;;;6.15;57.35;98643.47;5126543;27;20062;-76
2022/04/09 07:15:22;;;;;;;4.13;1.33;;;;;;;6.04;56.72;98648.28;5118369;27;20103;-77
2022/04/09 07:18:06;;;;;;;2.97;1.00;;;;;;;5.90;57.89;98636.53;5104598;28;20050;-77
2022/04/09 07:20:50;;;;;;;3.58;1.10;;;;;;;5.75;58.62;98656.66;5119183;27;20054;-77
2022/04/09 07:23:35;;;;;;;4.45;1.00;;;;;;;5.80;58.65;98659.28;5109496;27;20078;-75
2022/04/09 07:26:00;;;;;;;1.50;1.00;;;;;;;5.81;59.39;98660.91;5123310;27;20075;-75
2022/04/09 07:28:26;;;;;;;3.05;0.93;;;;;;;5.83;58.09;98668.78;5116554;27;20811;-76
2022/04/09 07:30:51;;;;;;;5.22;1.90;;;;;;;5.80;58.20;98658.47;5094817;28;20122;-76
2022/04/09 07:33:17;;;;;;;2.38;0.77;;;;;;;5.65;58.59;98668.50;5100361;27;20118;-76
2022/04/09 07:36:02;;;;;;;5.82;1.42;;;;;;;5.79;58.69;98667.75;5121123;27;20062;-77
2022/04/09 07:38:46;;;;;;;4.57;0.75;;;;;;;7.37;56.76;98674.44;5104994;27;20100;-76
2022/04/09 07:41:31;;;;;;;1.83;0.82;;;;;;;8.71;52.88;98679.78;5108913;28;20101;-76
2022/04/09 07:44:15;;;;;;;4.50;1.20;;;;;;;9.57;49.00;98686.53;5126506;27;20417;-77
2022/04/09 07:47:00;;;;;;;2.45;0.65;;;;;;;9.31;49.14;98678.28;5097872;27;20119;-76
2022/04/09 07:49:46;;;;;;;4.95;1.40;;;;;;;10.18;47.17;98682.56;5101856;27;20351;-76
2022/04/09 07:52:31;;;;;;;4.35;0.77;;;;;;;10.87;45.69;98676.84;5124976;27;20597;-77
2022/04/09 07:54:57;;;;;;;1.92;0.68;;;;;;;11.55;43.09;98682.22;5128601;27;20043;-76
2022/04/09 07:57:24;;;;;;;3.00;0.95;;;;;;;11.24;43.12;98696.34;5114063;27;20063;-76
2022/04/09 08:00:09;;;;;;;1.58;0.68;;;;;;;10.20;44.08;98698.69;5101777;27;20439;-76
2022/04/09 08:02:56;;;;;;;2.05;0.73;;;;;;;9.28;45.99;98687.94;5128440;27;20716;-77
2022/04/09 08:05:40;;;;;;;7.38;0.93;;;;;;;8.52;47.82;98720.22;5121236;27;20054;-76
2022/04/09 08:08:25;;;;;;;0.93;0.70;;;;;;;9.00;48.34;98717.50;5097874;28;20066;-76
2022/04/09 08:11:10;;;;;;;3.25;0.95;;;;;;;9.80;47.34;98720.03;5116600;27;20074;-77
2022/04/09 08:13:36;;;;;;;2.78;0.90;;;;;;;10.27;45.92;98715.50;5123067;27;20076;-76
2022/04/09 08:16:02;;;;;;;2.13;0.77;;;;;;;9.78;45.72;98725.81;5115724;27;20040;-77
2022/04/09 08:18:46;;;;;;;2.15;0.73;;;;;;;8.90;46.98;98734.22;5110934;27;20053;-77
2022/04/09 08:21:30;;;;;;;5.80;1.10;;;;;;;8.82;48.27;98743.19;5094074;27;20098;-78
2022/04/09 08:24:15;;;;;;;3.65;1.23;;;;;;;8.02;48.81;98739.50;5106819;27;20047;-75
2022/04/09 08:26:59;;;;;;;3.50;1.13;;;;;;;7.35;50.69;98758.53;5075927;28;20456;-77
2022/04/09 08:29:43;;;;;;;6.15;1.77;;;;;;;6.94;51.56;98751.19;5110464;27;20177;-77
2022/04/09 08:32:29;;;;;;;8.48;0.88;;;;;;;6.64;51.96;98762.69;5114231;27;20050;-77
2022/04/09 08:35:13;;;;;;;6.53;0.95;;;;;;;6.48;53.49;98783.94;5101448;27;20527;-77
2022/04/09 08:37:40;;;;;;;2.30;0.88;;;;;;;6.43;52.99;98770.44;5088941;28;20043;-77
2022/04/09 08:40:06;;;;;;;2.38;0.70;;;;;;;6.30;53.02;98777.44;5120461;27;20042;-77
2022/04/09 08:42:50;;;;;;;0.98;0.57;;;;;;;6.49;52.39;98776.59;5099040;27;20047;-78
2022/04/09 08:45:36;;;;;;;2.55;1.02;;;;;;;7.08;51.61;98777.63;5116868;27;20116;-77
2022/04/09 08:48:21;;;;;;;3.30;0.55;;;;;;;8.31;48.94;98773.75;5090825;28;20475;-77
2022/04/09 08:51:05;;;;;;;2.35;1.00;;;;;;;8.89;47.94;98783.78;5100070;28;20050;-76
2022/04/09 08:53:51;;;;;;;1.15;0.60;;;;;;;8.07;47.94;98783.09;5120101;27;20047;-76
2022/04/09 08:56:36;;;;;;;3.50;0.88;;;;;;;8.10;48.36;98792.56;5107322;28;20532;-76
2022/04/09 08:59:14;;;;;;;4.40;1.17;;;;;;;8.71;47.01;98794.63;5121022;28;20032;-77
2022/04/09 09:01:40;;;;;;;7.10;0.90;;;;;;;9.13;46.49;98803.31;5079281;28;20535;-76
2022/04/09 09:04:06;;;;;;;4.35;0.80;;;;;;;9.00;46.15;98812.44;5117247;28;20040;-76
2022/04/09 09:06:50;;;;;;;5.60;1.20;;;;;;;8.65;47.90;98811.47;5112429;28;20062;-76
2022/04/09 09:09:36;;;;;;;2.63;0.77;;;;;;;7.91;47.74;98819.25;5087459;28;20668;-76
2022/04/09 09:12:30;;;;;;;2.85;1.15;;;;;;;7.46;49.52;98828.16;5118069;28;20570;-76
2022/04/09 09:15:15;;;;;;;3.15;0.80;;;;;;;7.10;49.97;98833.50;5113561;27;20042;-76
2022/04/09 09:17:59;;;;;;;3.85;0.82;;;;;;;6.83;50.86;98842.47;5107834;28;20130;-76
2022/04/09 09:20:51;;;;;;;3.33;1.00;;;;;;;6.63;51.09;98840.91;5114135;27;20061;-76
2022/04/09 09:23:37;;;;;;;2.92;0.73;;;;;;;6.52;51.89;98842.19;5121022;27;20407;-76
2022/04/09 09:26:04;;;;;;;2.00;0.63;;;;;;;6.63;51.25;98830.00;5125710;27;20047;-76
2022/04/09 09:28:56;;;;;;;4.13;0.98;;;;;;;6.68;51.48;98841.94;5117819;27;20058;-76
2022/04/09 09:31:45;;;;;;;2.88;1.00;;;;;;;6.88;50.72;98842.38;5124766;27;20092;-76
2022/04/09 09:34:30;;;;;;;;;;;;;;;6.89;52.18;98849.44;5111560;27;20050;-76
2022/04/09 09:37:23;;;;;;;1.60;0.50;;;;;;;7.07;51.56;98838.75;5085792;27;19926;-76
2022/04/09 09:39:50;;;;;;;3.83;0.90;;;;;;;7.09;51.51;98847.44;5120418;27;20035;-76
2022/04/09 09:42:20;;;;;;;0.95;0.47;;;;;;;7.06;51.24;98854.31;5096861;28;20042;-76
2022/04/09 09:44:46;;;;;;;3.78;0.75;;;;;;;7.01;50.69;98842.69;5128112;27;20573;-74
2022/04/09 09:47:12;;;;;;;4.85;0.98;;;;;;;7.00;50.08;98857.44;5109875;27;20584;-75
2022/04/09 09:49:58;;;;;;;1.50;0.32;;;;;;;6.83;50.92;98856.09;5107748;28;20050;-76
2022/04/09 09:52:42;;;;;;;1.27;0.55;;;;;;;6.68;50.05;98867.25;5105771;27;20071;-75
2022/04/09 09:55:41;;;;;;;0.38;0.38;;;;;;;6.71;50.69;98866.66;5083343;27;20091;-75
2022/04/09 09:58:30;;;;;;;1.92;0.65;;;;;;;6.61;50.33;98866.84;5114957;27;20164;-75
2022/04/09 10:00:57;;;;;;;1.20;0.30;;;;;;;6.61;50.17;98870.38;5111555;28;20410;-76
2022/04/09 10:03:24;;;;;;;3.25;1.00;;;;;;;6.71;50.51;98874.03;5090126;28;20047;-76
2022/04/09 10:06:08;;;;;;;4.25;1.40;;;;;;;6.72;49.98;98887.34;5119602;27;20078;-76
2022/04/09 10:08:52;;;;;;;4.78;1.30;;;;;;;6.67;50.00;98881.19;5115797;27;20204;-75
2022/04/09 10:11:46;;;;;;;2.83;1.40;;;;;;;6.71;50.40;98891.19;5125043;27;20054;-75
2022/04/09 10:14:31;;;;;;;3.22;1.17;;;;;;;6.73;50.26;98896.34;5116501;27;20463;-75
2022/04/09 10:17:17;;;;;;;2.65;1.05;;;;;;;6.70;50.29;98894.22;5093877;27;20031;-75
2022/04/09 10:19:43;;;;;;;3.53;0.90;;;;;;;6.69;50.05;98892.59;5101631;27;20111;-76
2022/04/09 10:22:09;;;;;;;1.58;0.98;;;;;;;6.69;49.78;98909.75;5076632;28;20035;-75
2022/04/09 10:24:55;;;;;;;2.25;1.00;;;;;;;6.88;49.51;98909.72;5111571;27;20120;-75
2022/04/09 10:27:43;;;;;;;3.85;0.70;;;;;;;6.98;48.63;98906.00;5116470;27;20095;-75
2022/04/09 10:30:30;;;;;;;6.60;1.33;;;;;;;7.07;49.10;98915.13;5117119;27;20078;-76
2022/04/09 10:33:22;;;;;;;5.40;1.52;;;;;;;7.12;48.07;98906.84;5069104;27;20039;-76
2022/04/09 10:36:07;;;;;;;5.50;1.13;;;;;;;7.08;48.05;98900.38;5117657;27;20504;-76
2022/04/09 10:39:23;;;;;;;3.72;0.95;;;;;;;7.09;48.03;98923.78;5095745;27;20149;-74
2022/04/09 10:41:49;;;;;;;4.20;0.68;;;;;;;7.08;47.53;98920.25;5093496;28;20036;-74
2022/04/09 10:44:33;;;;;;;5.47;1.60;;;;;;;7.17;48.05;98918.47;5112105;27;20121;-76
2022/04/09 10:47:18;;;;;;;1.70;0.98;;;;;;;7.19;47.06;98927.16;5102484;27;20046;-77
2022/04/09 10:50:05;;;;;;;6.13;1.50;;;;;;;7.04;46.23;98926.63;5082035;28;20042;-76
2022/04/09 10:52:32;;;;;;;2.60;1.45;;;;;;;6.90;46.36;98927.38;5077573;28;20035;-77
2022/04/09 10:55:10;;;;;;;6.50;1.15;;;;;;;6.84;46.72;98912.25;5099081;27;20031;-78
2022/04/09 10:58:00;;;;;;;3.45;1.15;;;;;;;6.87;46.51;98919.81;5101219;27;20045;-78
2022/04/09 11:00:44;;;;;;;3.55;1.20;;;;;;;6.92;46.58;98913.47;5097436;27;20093;-79
2022/04/09 11:03:28;;;;;;;3.65;1.63;;;;;;;7.00;46.65;98922.88;5104659;27;20061;-77
2022/04/09 11:06:38;;;;;;;3.50;1.10;;;;;;;7.05;45.77;98934.50;5124079;27;20481;-79
2022/04/09 11:09:22;;;;;;;12.93;1.45;;;;;;;7.04;46.37;98921.16;5104216;27;20092;-75
2022/04/09 11:12:07;;;;;;;4.75;1.40;;;;;;;7.06;46.07;98921.69;5108053;27;20101;-77
2022/04/09 11:14:47;;;;;;;6.05;1.50;;;;;;;7.09;46.80;98926.53;5104385;27;20040;-77
2022/04/09 11:17:22;;;;;;;3.97;0.80;;;;;;;7.17;46.23;98931.31;5092310;28;20654;-76
2022/04/09 11:19:48;;;;;;;2.33;0.98;;;;;;;7.21;46.51;98933.13;5102592;28;20051;-77
2022/04/09 11:22:44;;;;;;;2.40;1.00;;;;;;;7.26;45.91;98930.28;5096777;27;20092;-77
2022/04/09 11:25:30;;;;;;;2.85;1.45;;;;;;;7.25;45.64;98927.88;5113748;27;20142;-80
2022/04/09 11:28:18;;;;;;;2.38;1.20;;;;;;;7.24;46.14;98926.25;5120421;27;20460;-78
2022/04/09 11:31:06;;;;;;;3.25;1.02;;;;;;;7.25;45.70;98936.06;5085324;27;20088;-79
2022/04/09 11:33:32;;;;;;;4.25;1.05;;;;;;;7.23;44.80;98930.91;5098449;27;20040;-76
2022/04/09 11:35:59;;;;;;;2.33;1.20;;;;;;;7.27;45.16;98931.09;5097294;27;20044;-77
2022/04/09 11:38:44;;;;;;;1.65;1.13;;;;;;;7.35;45.53;98927.69;5083335;27;20125;-75
2022/04/09 11:41:27;;;;;;;3.33;1.30;;;;;;;7.35;44.82;98930.41;5102677;27;20630;-78
2022/04/09 11:44:26;;;;;;;1.70;1.02;;;;;;;7.32;44.86;98925.56;5103528;27;20051;-80
2022/04/09 11:47:12;;;;;;;3.97;1.42;;;;;;;7.36;45.26;98923.03;5110836;27;20096;-79
2022/04/09 11:49:56;;;;;;;8.68;2.15;;;;;;;7.43;44.91;98932.44;5100125;28;20086;-78
2022/04/09 11:52:40;;;;;;;2.80;1.30;;;;;;;7.49;45.25;98917.59;5096663;28;20042;-78
2022/04/09 11:55:27;;;;;;;6.97;1.90;;;;;;;7.60;44.53;98922.84;5081981;28;20051;-80
2022/04/09 11:57:54;;;;;;;5.05;1.00;;;;;;;7.70;44.05;98909.00;5098934;27;20047;-78
2022/04/09 12:00:27;;;;;;;4.43;1.30;;;;;;;7.76;43.18;98910.50;5085546;28;20078;-81
2022/04/09 12:03:12;;;;;;;2.90;1.20;;;;;;;7.78;43.25;98913.72;5105963;27;20151;-81
2022/04/09 12:05:59;;;;;;;2.67;0.90;;;;;;;7.82;42.22;98921.03;5110149;27;20046;-81
2022/04/09 12:08:44;;;;;;;3.67;1.02;;;;;;;7.79;42.70;98913.41;5102739;27;20050;-81
2022/04/09 12:11:28;;;;;;;3.20;1.13;;;;;;;7.77;42.54;98928.50;5071718;28;20177;-82
2022/04/09 12:14:17;;;;;;;9.82;1.85;;;;;;;7.84;42.14;98926.19;5080943;27;20043;-83
2022/04/09 12:17:12;;;;;;;2.13;1.20;;;;;;;7.80;41.70;98922.41;5086361;28;20097;-80
2022/04/09 12:19:40;;;;;;;4.25;1.13;;;;;;;7.73;41.71;98919.31;5109416;27;20095;-75
2022/04/09 12:22:12;;;;;;;12.53;5.33;;;;;;;7.63;40.76;98916.78;5107317;27;20088;-76
2022/04/09 12:24:58;;;;;;;6.68;1.17;;;;;;;7.50;41.10;98930.13;5105926;27;20672;-76
2022/04/09 12:27:46;;;;;;;2.97;1.02;;;;;;;7.51;41.36;98948.13;5104939;27;20181;-76
2022/04/09 12:30:41;;;;;;;3.67;1.57;;;;;;;7.54;40.44;98925.69;5077246;28;20541;-77
2022/04/09 12:33:27;;;;;;;0.90;0.70;;;;;;;7.63;39.64;98916.78;5104319;27;20047;-76
2022/04/09 12:36:11;;;;;;;2.80;1.00;;;;;;;7.62;39.42;98904.22;5105016;27;20540;-77
2022/04/09 12:38:41;;;;;;;2.28;1.00;;;;;;;7.66;39.54;98919.72;5085422;27;20035;-76
2022/04/09 12:41:07;;;;;;;1.92;0.80;;;;;;;7.68;40.22;98914.75;5073203;28;20039;-76
2022/04/09 12:43:40;;;;;;;5.60;2.05;;;;;;;7.78;39.24;98919.19;5090849;28;20044;-78